sensor_id;sensor_type;location;lat;lon;timestamp;pressure;altitude;pressure_sealevel;temperature;humidity
16100;BME280;8154;50.830;12.082;2023-05-08T00:02:30;100062.34;;;24.26;34.88
16100;BME280;8154;50.830;12.082;2023-05-08T00:04:56;100053.69;;;24.24;34.64
16100;BME280;8154;50.830;12.082;2023-05-08T00:07:23;100058.50;;;24.14;34.90
16100;BME280;8154;50.830;12.082;2023-05-08T00:09:49;100058.22;;;24.09;34.96
16100;BME280;8154;50.830;12.082;2023-05-08T00:12:16;100060.97;;;24.16;35.14
16100;BME280;8154;50.830;12.082;2023-05-08T00:14:42;100062.06;;;24.21;34.69
16100;BME280;8154;50.830;12.082;2023-05-08T00:17:09;100048.53;;;24.23;34.94
16100;BME280;8154;50.830;12.082;2023-05-08T00:19:35;100056.53;;;24.23;35.02
16100;BME280;8154;50.830;12.082;2023-05-08T00:22:01;100053.31;;;24.27;34.81
16100;BME280;8154;50.830;12.082;2023-05-08T00:24:28;100048.34;;;24.24;34.61
16100;BME280;8154;50.830;12.082;2023-05-08T00:26:55;100053.69;;;24.24;34.71
16100;BME280;8154;50.830;12.082;2023-05-08T00:29:21;100053.22;;;24.21;34.75
16100;BME280;8154;50.830;12.082;2023-05-08T00:32:07;100053.72;;;24.10;34.86
16100;BME280;8154;50.830;12.082;2023-05-08T00:34:52;100058.78;;;24.05;35.25
16100;BME280;8154;50.830;12.082;2023-05-08T00:37:18;100059.44;;;24.07;35.00
16100;BME280;8154;50.830;12.082;2023-05-08T00:39:46;100055.00;;;24.14;35.11
16100;BME280;8154;50.830;12.082;2023-05-08T00:42:12;100057.28;;;24.17;34.81
16100;BME280;8154;50.830;12.082;2023-05-08T00:44:38;100048.44;;;24.16;34.99
16100;BME280;8154;50.830;12.082;2023-05-08T00:47:06;100054.69;;;24.09;35.13
16100;BME280;8154;50.830;12.082;2023-05-08T00:49:33;100049.25;;;24.02;35.06
16100;BME280;8154;50.830;12.082;2023-05-08T00:52:04;100064.94;;;24.05;34.93
16100;BME280;8154;50.830;12.082;2023-05-08T00:54:35;100063.75;;;24.08;34.97
16100;BME280;8154;50.830;12.082;2023-05-08T00:57:05;100055.72;;;24.08;34.98
16100;BME280;8154;50.830;12.082;2023-05-08T00:59:32;100054.53;;;24.10;35.03
16100;BME280;8154;50.830;12.082;2023-05-08T01:02:01;100058.78;;;24.05;35.32
16100;BME280;8154;50.830;12.082;2023-05-08T01:04:30;100056.47;;;24.02;35.36
16100;BME280;8154;50.830;12.082;2023-05-08T01:06:57;100064.59;;;24.08;35.26
16100;BME280;8154;50.830;12.082;2023-05-08T01:09:23;100063.38;;;24.11;35.08
16100;BME280;8154;50.830;12.082;2023-05-08T01:15:11;100070.63;;;24.17;34.87
16100;BME280;8154;50.830;12.082;2023-05-08T01:20:48;100076.34;;;23.99;35.11
16100;BME280;8154;50.830;12.082;2023-05-08T03:26:17;100116.72;;;23.82;35.64
16100;BME280;8154;50.830;12.082;2023-05-08T03:28:47;100104.94;;;23.91;35.49
16100;BME280;8154;50.830;12.082;2023-05-08T03:31:20;100107.34;;;23.86;35.59
16100;BME280;8154;50.830;12.082;2023-05-08T03:33:50;100107.22;;;23.79;35.89
16100;BME280;8154;50.830;12.082;2023-05-08T03:36:18;100105.94;;;23.75;35.73
16100;BME280;8154;50.830;12.082;2023-05-08T03:38:45;100109.81;;;23.87;35.63
16100;BME280;8154;50.830;12.082;2023-05-08T03:41:11;100103.94;;;23.92;35.59
16100;BME280;8154;50.830;12.082;2023-05-08T03:43:38;100103.13;;;23.91;35.63
16100;BME280;8154;50.830;12.082;2023-05-08T03:46:06;100113.63;;;23.93;35.48
16100;BME280;8154;50.830;12.082;2023-05-08T03:48:34;100108.53;;;23.83;35.60
16100;BME280;8154;50.830;12.082;2023-05-08T03:51:04;100117.91;;;23.79;35.71
16100;BME280;8154;50.830;12.082;2023-05-08T03:53:33;100120.69;;;23.86;35.63
16100;BME280;8154;50.830;12.082;2023-05-08T03:55:59;100119.50;;;23.88;35.36
16100;BME280;8154;50.830;12.082;2023-05-08T03:58:32;100123.06;;;23.81;35.49
16100;BME280;8154;50.830;12.082;2023-05-08T04:01:09;100126.44;;;23.75;35.56
16100;BME280;8154;50.830;12.082;2023-05-08T04:06:28;100121.34;;;23.88;35.30
16100;BME280;8154;50.830;12.082;2023-05-08T04:12:29;100120.50;;;23.87;35.55
16100;BME280;8154;50.830;12.082;2023-05-08T04:15:09;100115.78;;;23.75;35.80
16100;BME280;8154;50.830;12.082;2023-05-08T04:17:47;100123.59;;;23.76;35.68
16100;BME280;8154;50.830;12.082;2023-05-08T04:20:18;100134.47;;;23.75;35.94
16100;BME280;8154;50.830;12.082;2023-05-08T04:22:49;100131.53;;;23.70;36.22
16100;BME280;8154;50.830;12.082;2023-05-08T04:25:20;100141.53;;;23.68;36.13
16100;BME280;8154;50.830;12.082;2023-05-08T06:28:39;100192.03;;;23.92;36.41
16100;BME280;8154;50.830;12.082;2023-05-08T06:31:06;100184.88;;;23.92;36.50
16100;BME280;8154;50.830;12.082;2023-05-08T06:33:32;100186.06;;;23.90;36.69
16100;BME280;8154;50.830;12.082;2023-05-08T06:35:59;100187.06;;;23.89;36.63
16100;BME280;8154;50.830;12.082;2023-05-08T06:38:26;100179.72;;;23.91;36.55
16100;BME280;8154;50.830;12.082;2023-05-08T06:40:53;100173.34;;;23.92;36.63
16100;BME280;8154;50.830;12.082;2023-05-08T06:43:19;100176.84;;;23.92;36.92
16100;BME280;8154;50.830;12.082;2023-05-08T06:45:46;100193.72;;;23.93;36.89
16100;BME280;8154;50.830;12.082;2023-05-08T06:48:13;100173.16;;;23.93;36.57
16100;BME280;8154;50.830;12.082;2023-05-08T06:50:39;100170.69;;;23.92;36.59
16100;BME280;8154;50.830;12.082;2023-05-08T06:53:06;100177.38;;;23.96;36.70
16100;BME280;8154;50.830;12.082;2023-05-08T06:55:32;100169.97;;;23.98;36.95
16100;BME280;8154;50.830;12.082;2023-05-08T06:57:58;100172.81;;;23.96;36.78
16100;BME280;8154;50.830;12.082;2023-05-08T07:00:25;100170.16;;;23.96;37.16
16100;BME280;8154;50.830;12.082;2023-05-08T07:02:52;100175.31;;;23.98;37.08
16100;BME280;8154;50.830;12.082;2023-05-08T07:05:18;100174.50;;;23.97;36.93
16100;BME280;8154;50.830;12.082;2023-05-08T07:07:45;100173.31;;;24.00;37.02
16100;BME280;8154;50.830;12.082;2023-05-08T07:10:11;100172.94;;;24.03;36.71
16100;BME280;8154;50.830;12.082;2023-05-08T07:12:37;100176.63;;;24.02;37.05
16100;BME280;8154;50.830;12.082;2023-05-08T07:15:04;100171.13;;;24.03;37.06
16100;BME280;8154;50.830;12.082;2023-05-08T07:17:30;100166.75;;;24.02;36.91
16100;BME280;8154;50.830;12.082;2023-05-08T07:19:57;100163.75;;;24.05;37.06
16100;BME280;8154;50.830;12.082;2023-05-08T07:22:24;100166.44;;;24.05;37.08
16100;BME280;8154;50.830;12.082;2023-05-08T07:24:50;100170.94;;;24.05;36.97
16100;BME280;8154;50.830;12.082;2023-05-08T08:28:39;100173.63;;;24.34;37.07
16100;BME280;8154;50.830;12.082;2023-05-08T08:31:05;100178.97;;;24.34;36.78
16100;BME280;8154;50.830;12.082;2023-05-08T08:33:31;100173.44;;;24.36;36.85
16100;BME280;8154;50.830;12.082;2023-05-08T08:35:57;100174.28;;;24.36;36.84
16100;BME280;8154;50.830;12.082;2023-05-08T08:38:24;100173.44;;;24.36;36.90
16100;BME280;8154;50.830;12.082;2023-05-08T08:40:50;100183.47;;;24.33;36.96
16100;BME280;8154;50.830;12.082;2023-05-08T08:43:18;100174.28;;;24.36;37.23
16100;BME280;8154;50.830;12.082;2023-05-08T08:45:44;100181.28;;;24.37;36.96
16100;BME280;8154;50.830;12.082;2023-05-08T08:48:10;100175.28;;;24.35;37.35
16100;BME280;8154;50.830;12.082;2023-05-08T08:50:41;100176.28;;;24.34;37.14
16100;BME280;8154;50.830;12.082;2023-05-08T08:53:13;100182.09;;;24.38;37.09
16100;BME280;8154;50.830;12.082;2023-05-08T08:55:45;100175.91;;;24.37;36.89
16100;BME280;8154;50.830;12.082;2023-05-08T09:00:59;100169.56;;;24.38;36.84
16100;BME280;8154;50.830;12.082;2023-05-08T09:03:26;100168.56;;;24.39;37.19
16100;BME280;8154;50.830;12.082;2023-05-08T09:05:53;100172.22;;;24.38;36.86
16100;BME280;8154;50.830;12.082;2023-05-08T09:08:19;100169.41;;;24.40;37.20
16100;BME280;8154;50.830;12.082;2023-05-08T09:10:45;100163.22;;;24.39;37.15
16100;BME280;8154;50.830;12.082;2023-05-08T09:13:13;100170.59;;;24.37;36.86
16100;BME280;8154;50.830;12.082;2023-05-08T09:15:39;100166.72;;;24.40;36.90
16100;BME280;8154;50.830;12.082;2023-05-08T09:18:06;100164.69;;;24.42;36.96
16100;BME280;8154;50.830;12.082;2023-05-08T09:20:33;100159.53;;;24.40;36.84
16100;BME280;8154;50.830;12.082;2023-05-08T09:23:00;100157.03;;;24.39;36.88
16100;BME280;8154;50.830;12.082;2023-05-08T09:25:49;100165.34;;;24.44;36.84
16100;BME280;8154;50.830;12.082;2023-05-08T11:31:03;100116.41;;;24.43;36.84
16100;BME280;8154;50.830;12.082;2023-05-08T11:33:36;100104.06;;;24.42;36.84
16100;BME280;8154;50.830;12.082;2023-05-08T11:36:19;100109.03;;;24.45;36.73
16100;BME280;8154;50.830;12.082;2023-05-08T11:41:34;100107.75;;;24.41;36.87
16100;BME280;8154;50.830;12.082;2023-05-08T11:46:50;100096.69;;;24.44;37.15
16100;BME280;8154;50.830;12.082;2023-05-08T11:49:18;100088.88;;;24.43;37.00
16100;BME280;8154;50.830;12.082;2023-05-08T11:52:05;100083.16;;;24.46;36.87
16100;BME280;8154;50.830;12.082;2023-05-08T11:54:32;100087.66;;;24.45;36.62
16100;BME280;8154;50.830;12.082;2023-05-08T11:56:58;100087.66;;;24.45;36.98
16100;BME280;8154;50.830;12.082;2023-05-08T11:59:24;100083.34;;;24.44;36.85
16100;BME280;8154;50.830;12.082;2023-05-08T12:01:51;100080.66;;;24.44;37.02
16100;BME280;8154;50.830;12.082;2023-05-08T12:04:18;100086.00;;;24.44;36.99
16100;BME280;8154;50.830;12.082;2023-05-08T12:06:47;100082.13;;;24.47;36.94
16100;BME280;8154;50.830;12.082;2023-05-08T12:09:17;100083.34;;;24.44;37.04
16100;BME280;8154;50.830;12.082;2023-05-08T12:11:43;100081.47;;;24.45;36.87
16100;BME280;8154;50.830;12.082;2023-05-08T12:14:16;100085.63;;;24.47;36.63
16100;BME280;8154;50.830;12.082;2023-05-08T12:16:42;100085.44;;;24.49;36.66
16100;BME280;8154;50.830;12.082;2023-05-08T12:19:13;100080.28;;;24.47;36.94
16100;BME280;8154;50.830;12.082;2023-05-08T12:21:46;100082.78;;;24.49;36.87
16100;BME280;8154;50.830;12.082;2023-05-08T12:24:17;100084.41;;;24.50;36.65
16100;BME280;8154;50.830;12.082;2023-05-08T12:26:54;100082.78;;;24.49;36.52
16100;BME280;8154;50.830;12.082;2023-05-08T12:29:21;100091.59;;;24.49;36.56
16100;BME280;8154;50.830;12.082;2023-05-08T12:32:07;100078.00;;;24.44;36.85
16100;BME280;8154;50.830;12.082;2023-05-08T12:34:33;100075.31;;;24.44;36.67
16100;BME280;8154;50.830;12.082;2023-05-08T12:37:03;100082.31;;;24.45;36.84
16100;BME280;8154;50.830;12.082;2023-05-08T12:39:34;100087.47;;;24.47;36.58
16100;BME280;8154;50.830;12.082;2023-05-08T12:42:06;100087.28;;;24.48;36.80
16100;BME280;8154;50.830;12.082;2023-05-08T12:44:34;100077.63;;;24.47;36.80
16100;BME280;8154;50.830;12.082;2023-05-08T12:47:00;100081.94;;;24.48;36.62
16100;BME280;8154;50.830;12.082;2023-05-08T12:49:28;100082.13;;;24.47;36.69
16100;BME280;8154;50.830;12.082;2023-05-08T12:52:07;100066.56;;;24.50;36.61
16100;BME280;8154;50.830;12.082;2023-05-08T12:54:37;100074.38;;;24.52;36.81
16100;BME280;8154;50.830;12.082;2023-05-08T12:57:16;100073.09;;;24.48;36.55
16100;BME280;8154;50.830;12.082;2023-05-08T12:59:46;100066.94;;;24.47;36.70
16100;BME280;8154;50.830;12.082;2023-05-08T13:02:19;100068.94;;;24.45;36.79
16100;BME280;8154;50.830;12.082;2023-05-08T13:04:54;100064.25;;;24.47;36.47
16100;BME280;8154;50.830;12.082;2023-05-08T13:07:21;100067.16;;;24.52;36.69
16100;BME280;8154;50.830;12.082;2023-05-08T13:09:58;100064.44;;;24.46;36.42
16100;BME280;8154;50.830;12.082;2023-05-08T13:12:30;100059.91;;;24.46;36.71
16100;BME280;8154;50.830;12.082;2023-05-08T13:14:56;100051.50;;;24.49;36.56
16100;BME280;8154;50.830;12.082;2023-05-08T13:17:25;100049.69;;;24.50;36.33
16100;BME280;8154;50.830;12.082;2023-05-08T13:19:51;100044.34;;;24.50;36.72
16100;BME280;8154;50.830;12.082;2023-05-08T13:22:18;100041.00;;;24.48;36.72
16100;BME280;8154;50.830;12.082;2023-05-08T13:24:48;100035.47;;;24.49;36.41
16100;BME280;8154;50.830;12.082;2023-05-08T13:27:14;100042.50;;;24.50;36.58
16100;BME280;8154;50.830;12.082;2023-05-08T13:29:40;100035.09;;;24.52;36.59
16100;BME280;8154;50.830;12.082;2023-05-08T13:32:07;100035.09;;;24.52;36.46
16100;BME280;8154;50.830;12.082;2023-05-08T13:34:39;100033.47;;;24.51;36.73
16100;BME280;8154;50.830;12.082;2023-05-08T13:37:06;100033.84;;;24.48;36.55
16100;BME280;8154;50.830;12.082;2023-05-08T13:39:32;100029.13;;;24.50;36.30
16100;BME280;8154;50.830;12.082;2023-05-08T13:42:02;100022.38;;;24.54;36.54
16100;BME280;8154;50.830;12.082;2023-05-08T13:44:29;100021.38;;;24.55;36.60
16100;BME280;8154;50.830;12.082;2023-05-08T13:46:55;100026.72;;;24.55;36.25
16100;BME280;8154;50.830;12.082;2023-05-08T13:49:23;100018.44;;;24.50;36.26
16100;BME280;8154;50.830;12.082;2023-05-08T13:51:52;100008.38;;;24.52;36.30
16100;BME280;8154;50.830;12.082;2023-05-08T13:54:19;100006.75;;;24.51;36.36
16100;BME280;8154;50.830;12.082;2023-05-08T13:56:46;100007.38;;;24.53;36.28
16100;BME280;8154;50.830;12.082;2023-05-08T13:59:15;100005.72;;;24.52;36.31
16100;BME280;8154;50.830;12.082;2023-05-08T14:01:46;99999.97;;;24.55;36.25
16100;BME280;8154;50.830;12.082;2023-05-08T14:04:13;100003.88;;;24.53;36.29
16100;BME280;8154;50.830;12.082;2023-05-08T14:06:40;99995.84;;;24.53;36.29
16100;BME280;8154;50.830;12.082;2023-05-08T14:09:06;99990.50;;;24.53;36.12
16100;BME280;8154;50.830;12.082;2023-05-08T14:11:33;99987.28;;;24.57;36.26
16100;BME280;8154;50.830;12.082;2023-05-08T14:13:59;99990.97;;;24.56;36.32
16100;BME280;8154;50.830;12.082;2023-05-08T14:16:27;99985.88;;;24.61;36.23
16100;BME280;8154;50.830;12.082;2023-05-08T14:18:53;99979.44;;;24.56;36.00
16100;BME280;8154;50.830;12.082;2023-05-08T14:21:19;99984.59;;;24.57;36.06
16100;BME280;8154;50.830;12.082;2023-05-08T14:23:52;99985.44;;;24.58;36.10
16100;BME280;8154;50.830;12.082;2023-05-08T14:26:19;99980.09;;;24.58;36.09
16100;BME280;8154;50.830;12.082;2023-05-08T14:47:29;99975.75;;;24.57;36.36
16100;BME280;8154;50.830;12.082;2023-05-08T14:49:57;99972.25;;;24.56;36.30
16100;BME280;8154;50.830;12.082;2023-05-08T14:52:23;99978.25;;;24.58;36.03
16100;BME280;8154;50.830;12.082;2023-05-08T14:54:49;99978.88;;;24.60;36.24
16100;BME280;8154;50.830;12.082;2023-05-08T14:57:19;99967.38;;;24.60;35.93
16100;BME280;8154;50.830;12.082;2023-05-08T14:59:45;99965.31;;;24.62;36.00
16100;BME280;8154;50.830;12.082;2023-05-08T15:02:12;99959.78;;;24.63;36.07
16100;BME280;8154;50.830;12.082;2023-05-08T15:04:38;99959.97;;;24.62;36.13
16100;BME280;8154;50.830;12.082;2023-05-08T15:07:07;99968.19;;;24.60;35.94
16100;BME280;8154;50.830;12.082;2023-05-08T15:09:33;99968.19;;;24.60;36.15
16100;BME280;8154;50.830;12.082;2023-05-08T15:12:00;99967.00;;;24.63;35.99
16100;BME280;8154;50.830;12.082;2023-05-08T15:14:30;99969.47;;;24.64;35.86
16100;BME280;8154;50.830;12.082;2023-05-08T15:16:56;99969.41;;;24.58;36.28
16100;BME280;8154;50.830;12.082;2023-05-08T15:21:50;99962.44;;;24.63;35.82
16100;BME280;8154;50.830;12.082;2023-05-08T15:24:16;99965.50;;;24.60;36.09
16100;BME280;8154;50.830;12.082;2023-05-08T15:26:43;99966.28;;;24.54;36.33
16100;BME280;8154;50.830;12.082;2023-05-08T16:31:17;99961.28;;;24.66;35.85
16100;BME280;8154;50.830;12.082;2023-05-08T16:33:43;99965.59;;;24.67;35.67
16100;BME280;8154;50.830;12.082;2023-05-08T16:36:10;99968.19;;;24.60;35.97
16100;BME280;8154;50.830;12.082;2023-05-08T16:38:37;99967.19;;;24.61;35.66
16100;BME280;8154;50.830;12.082;2023-05-08T16:41:05;99959.59;;;24.65;35.70
16100;BME280;8154;50.830;12.082;2023-05-08T16:43:33;99959.59;;;24.65;35.49
16100;BME280;8154;50.830;12.082;2023-05-08T16:45:59;99956.88;;;24.58;35.55
16100;BME280;8154;50.830;12.082;2023-05-08T16:48:26;99961.38;;;24.58;35.93
16100;BME280;8154;50.830;12.082;2023-05-08T16:50:53;99962.09;;;24.66;35.44
16100;BME280;8154;50.830;12.082;2023-05-08T16:53:20;99963.59;;;24.69;35.46
16100;BME280;8154;50.830;12.082;2023-05-08T16:55:46;99966.16;;;24.62;35.51
16100;BME280;8154;50.830;12.082;2023-05-08T16:58:19;99966.53;;;24.59;35.49
16100;BME280;8154;50.830;12.082;2023-05-08T17:00:46;99962.44;;;24.63;35.75
16100;BME280;8154;50.830;12.082;2023-05-08T17:03:13;99963.97;;;24.66;35.71
16100;BME280;8154;50.830;12.082;2023-05-08T17:05:39;99963.47;;;24.62;35.62
16100;BME280;8154;50.830;12.082;2023-05-08T17:08:05;99964.06;;;24.58;35.68
16100;BME280;8154;50.830;12.082;2023-05-08T17:10:32;99969.47;;;24.64;35.60
16100;BME280;8154;50.830;12.082;2023-05-08T17:12:58;99968.94;;;24.69;35.41
16100;BME280;8154;50.830;12.082;2023-05-08T17:15:24;99967.91;;;24.70;35.30
16100;BME280;8154;50.830;12.082;2023-05-08T17:17:58;99965.88;;;24.72;35.23
16100;BME280;8154;50.830;12.082;2023-05-08T17:20:24;99968.28;;;24.67;35.25
16100;BME280;8154;50.830;12.082;2023-05-08T17:22:52;99969.66;;;24.63;35.68
16100;BME280;8154;50.830;12.082;2023-05-08T17:25:18;99978.78;;;24.68;35.45
16100;BME280;8154;50.830;12.082;2023-05-08T17:27:47;99975.28;;;24.68;35.62
16100;BME280;8154;50.830;12.082;2023-05-08T17:30:14;99976.09;;;24.68;35.41
16100;BME280;8154;50.830;12.082;2023-05-08T17:32:59;99967.06;;;24.69;35.25
16100;BME280;8154;50.830;12.082;2023-05-08T17:35:26;99975.47;;;24.66;35.29
16100;BME280;8154;50.830;12.082;2023-05-08T17:37:52;99979.31;;;24.64;35.54
16100;BME280;8154;50.830;12.082;2023-05-08T17:40:19;99980.00;;;24.66;35.33
16100;BME280;8154;50.830;12.082;2023-05-08T17:42:45;99979.81;;;24.67;35.31
16100;BME280;8154;50.830;12.082;2023-05-08T17:45:12;99977.69;;;24.63;35.52
16100;BME280;8154;50.830;12.082;2023-05-08T17:47:39;99978.47;;;24.63;35.27
16100;BME280;8154;50.830;12.082;2023-05-08T17:50:05;99984.31;;;24.67;35.34
16100;BME280;8154;50.830;12.082;2023-05-08T17:52:34;99985.97;;;24.68;35.44
16100;BME280;8154;50.830;12.082;2023-05-08T17:55:00;99987.00;;;24.67;35.50
16100;BME280;8154;50.830;12.082;2023-05-08T17:57:27;99988.63;;;24.68;35.40
16100;BME280;8154;50.830;12.082;2023-05-08T17:59:54;99988.03;;;24.66;35.31
16100;BME280;8154;50.830;12.082;2023-05-08T18:02:20;99986.50;;;24.63;35.41
16100;BME280;8154;50.830;12.082;2023-05-08T18:04:46;99989.19;;;24.63;35.27
16100;BME280;8154;50.830;12.082;2023-05-08T18:07:13;99979.13;;;24.65;35.22
16100;BME280;8154;50.830;12.082;2023-05-08T18:09:40;99989.81;;;24.65;35.38
16100;BME280;8154;50.830;12.082;2023-05-08T18:12:06;99986.50;;;24.63;35.25
16100;BME280;8154;50.830;12.082;2023-05-08T18:14:43;99998.03;;;24.64;35.19
16100;BME280;8154;50.830;12.082;2023-05-08T18:17:12;99993.38;;;24.66;34.89
16100;BME280;8154;50.830;12.082;2023-05-08T18:19:45;99987.16;;;24.65;34.93
16100;BME280;8154;50.830;12.082;2023-05-08T18:22:12;99999.88;;;24.63;35.03
16100;BME280;8154;50.830;12.082;2023-05-08T18:24:39;99993.91;;;24.61;35.04
16100;BME280;8154;50.830;12.082;2023-05-08T18:27:08;99996.59;;;24.61;35.10
16100;BME280;8154;50.830;12.082;2023-05-08T18:29:35;100010.56;;;24.63;35.06
16100;BME280;8154;50.830;12.082;2023-05-08T19:30:38;100038.97;;;24.64;35.12
16100;BME280;8154;50.830;12.082;2023-05-08T19:35:30;100048.34;;;24.60;35.29
16100;BME280;8154;50.830;12.082;2023-05-08T19:37:57;100049.19;;;24.61;35.42
16100;BME280;8154;50.830;12.082;2023-05-08T19:40:23;100047.38;;;24.61;35.17
16100;BME280;8154;50.830;12.082;2023-05-08T19:42:49;100050.03;;;24.61;35.42
16100;BME280;8154;50.830;12.082;2023-05-08T19:45:36;100058.31;;;24.66;35.30
16100;BME280;8154;50.830;12.082;2023-05-08T19:48:05;100050.31;;;24.66;34.91
16100;BME280;8154;50.830;12.082;2023-05-08T19:50:31;100046.81;;;24.66;35.19
16100;BME280;8154;50.830;12.082;2023-05-08T19:53:01;100055.81;;;24.65;34.98
16100;BME280;8154;50.830;12.082;2023-05-08T19:55:33;100050.47;;;24.65;35.17
16100;BME280;8154;50.830;12.082;2023-05-08T19:58:00;100056.31;;;24.68;35.16
16100;BME280;8154;50.830;12.082;2023-05-08T20:00:30;100057.31;;;24.67;34.94
16100;BME280;8154;50.830;12.082;2023-05-08T20:02:56;100054.16;;;24.64;35.37
16100;BME280;8154;50.830;12.082;2023-05-08T20:05:22;100063.81;;;24.65;34.95
16100;BME280;8154;50.830;12.082;2023-05-08T20:07:51;100071.03;;;24.64;35.31
16100;BME280;8154;50.830;12.082;2023-05-08T20:10:19;100071.84;;;24.65;35.10
16100;BME280;8154;50.830;12.082;2023-05-08T20:12:49;100062.38;;;24.62;35.34
16100;BME280;8154;50.830;12.082;2023-05-08T20:15:15;100062.88;;;24.66;34.93
16100;BME280;8154;50.830;12.082;2023-05-08T20:17:45;100053.63;;;24.68;34.79
16100;BME280;8154;50.830;12.082;2023-05-08T20:20:12;100058.31;;;24.66;35.16
16100;BME280;8154;50.830;12.082;2023-05-08T20:22:41;100063.03;;;24.64;34.93
16100;BME280;8154;50.830;12.082;2023-05-08T20:25:07;100064.66;;;24.65;35.01
16100;BME280;8154;50.830;12.082;2023-05-08T20:27:35;100062.88;;;24.66;34.87
16100;BME280;8154;50.830;12.082;2023-05-08T20:30:02;100064.66;;;24.65;35.17
16100;BME280;8154;50.830;12.082;2023-05-08T22:30:48;100017.78;;;24.63;34.96
16100;BME280;8154;50.830;12.082;2023-05-08T22:33:32;100016.94;;;24.62;34.91
16100;BME280;8154;50.830;12.082;2023-05-08T22:35:59;100028.84;;;24.60;34.90
16100;BME280;8154;50.830;12.082;2023-05-08T22:40:52;100022.47;;;24.61;34.96
16100;BME280;8154;50.830;12.082;2023-05-08T22:43:22;100017.97;;;24.61;34.71
16100;BME280;8154;50.830;12.082;2023-05-08T22:45:49;100012.16;;;24.58;35.03
16100;BME280;8154;50.830;12.082;2023-05-08T22:48:14;100006.44;;;24.61;34.97
16100;BME280;8154;50.830;12.082;2023-05-08T22:50:42;100007.47;;;24.60;34.99
16100;BME280;8154;50.830;12.082;2023-05-08T22:53:08;100007.28;;;24.61;34.72
16100;BME280;8154;50.830;12.082;2023-05-08T22:55:36;100005.41;;;24.62;34.83
16100;BME280;8154;50.830;12.082;2023-05-08T22:58:03;100012.81;;;24.60;34.90
16100;BME280;8154;50.830;12.082;2023-05-08T23:00:29;100008.72;;;24.64;34.96
16100;BME280;8154;50.830;12.082;2023-05-08T23:02:56;100013.03;;;24.65;34.64
16100;BME280;8154;50.830;12.082;2023-05-08T23:05:22;100012.63;;;24.61;34.65
16100;BME280;8154;50.830;12.082;2023-05-08T23:07:48;100015.03;;;24.56;34.69
16100;BME280;8154;50.830;12.082;2023-05-08T23:10:16;100011.97;;;24.59;34.98
16100;BME280;8154;50.830;12.082;2023-05-08T23:15:10;100006.25;;;24.62;34.71
16100;BME280;8154;50.830;12.082;2023-05-08T23:17:37;99999.88;;;24.63;34.66
16100;BME280;8154;50.830;12.082;2023-05-08T23:20:04;99994.91;;;24.60;34.65
16100;BME280;8154;50.830;12.082;2023-05-08T23:22:46;99994.28;;;24.58;34.67
16100;BME280;8154;50.830;12.082;2023-05-08T23:25:13;99994.91;;;24.60;34.71
16100;BME280;8154;50.830;12.082;2023-05-08T23:27:42;99992.88;;;24.62;34.57
16100;BME280;8154;50.830;12.082;2023-05-08T23:30:08;99997.84;;;24.65;34.76
16100;BME280;8154;50.830;12.082;2023-05-08T23:32:38;99995.84;;;24.67;34.37
16100;BME280;8154;50.830;12.082;2023-05-08T23:35:05;99995.56;;;24.62;34.50
16100;BME280;8154;50.830;12.082;2023-05-08T23:37:32;99988.75;;;24.60;34.91
16100;BME280;8154;50.830;12.082;2023-05-08T23:39:59;99980.72;;;24.60;34.76
16100;BME280;8154;50.830;12.082;2023-05-08T23:42:25;99981.16;;;24.63;34.75
16100;BME280;8154;50.830;12.082;2023-05-08T23:44:53;99984.22;;;24.60;34.52
16100;BME280;8154;50.830;12.082;2023-05-08T23:47:19;99973.25;;;24.55;34.66
16100;BME280;8154;50.830;12.082;2023-05-08T23:49:47;99976.78;;;24.56;34.62
16100;BME280;8154;50.830;12.082;2023-05-08T23:52:13;99974.75;;;24.58;34.67
16100;BME280;8154;50.830;12.082;2023-05-08T23:54:39;99975.81;;;24.63;34.30
16100;BME280;8154;50.830;12.082;2023-05-08T23:57:05;99975.47;;;24.66;34.73
16100;BME280;8154;50.830;12.082;2023-05-08T23:59:31;99972.00;;;24.66;34.34
